Terminal Aerodrome Forecast
Issued by NWS

Home | Current Version | Previous Version | Text Only | Print | Product List | Glossary On
Versions: 1 2 3 4 5 6 7 8 9 10 11 12 13 14 15
000
FTUS42 TJSJ 301127
TAFJBQ
TAF
TJBQ 301127Z 3012/3112 11005KT P6SM FEW050
     FM301300 06013KT P6SM FEW030
     FM301800 07014KT P6SM VCSH SCT025 BKN040
     FM302300 11007KT P6SM SCT025
      AMD NOT SKED 3102/3110=

USA.gov is the U.S. government's official web portal to all federal, state and local government web resources and services.